createdAt,value
2024-04-16T00:00:23.519Z,12.38
2024-04-16T00:03:17.575Z,14.25
2024-04-16T00:06:04.489Z,14.30
2024-04-16T00:08:37.629Z,15.20
2024-04-16T00:11:24.532Z,15.02
2024-04-16T00:13:57.642Z,13.32
2024-04-16T00:16:44.667Z,13.52
2024-04-16T00:19:18.591Z,13.63
2024-04-16T00:22:05.528Z,11.25
2024-04-16T00:24:38.616Z,12.98
2024-04-16T00:27:25.507Z,13.23
2024-04-16T00:30:00.060Z,13.10
2024-04-16T00:32:46.641Z,13.02
2024-04-16T00:35:20.634Z,12.80
2024-04-16T00:38:14.517Z,13.05
2024-04-16T00:41:08.534Z,13.45
2024-04-16T00:44:02.531Z,12.88
2024-04-16T00:46:49.594Z,13.07
2024-04-16T00:49:23.756Z,13.93
2024-04-16T00:52:12.566Z,12.52
2024-04-16T00:54:46.636Z,12.95
2024-04-16T00:57:33.512Z,13.70
2024-04-16T01:00:06.625Z,13.68
2024-04-16T01:02:53.529Z,13.68
2024-04-16T01:05:26.624Z,13.73
2024-04-16T01:08:15.540Z,14.27
2024-04-16T01:10:49.618Z,13.75
2024-04-16T01:13:36.572Z,14.43
2024-04-16T01:16:10.652Z,13.93
2024-04-16T01:18:57.546Z,13.38
2024-04-16T01:21:30.640Z,11.85
2024-04-16T01:24:10.554Z,11.95
2024-04-16T01:26:50.561Z,12.15
2024-04-16T01:29:30.636Z,12.65
2024-04-16T01:32:10.616Z,12.25
2024-04-16T01:34:50.654Z,13.10
2024-04-16T01:37:44.547Z,12.00
2024-04-16T01:40:38.633Z,13.63
2024-04-16T01:43:25.545Z,14.48
2024-04-16T01:45:58.716Z,12.52
2024-04-16T01:48:45.533Z,11.50
2024-04-16T01:51:18.640Z,13.68
2024-04-16T01:54:05.536Z,12.30
2024-04-16T01:56:38.640Z,11.75
2024-04-16T01:59:25.552Z,11.65
2024-04-16T02:01:58.666Z,12.82
2024-04-16T02:04:45.627Z,13.38
2024-04-16T02:07:18.700Z,14.15
2024-04-16T02:10:05.581Z,14.43
2024-04-16T02:12:45.589Z,14.65
2024-04-16T02:15:39.548Z,14.57
2024-04-16T02:18:26.650Z,15.55
2024-04-16T02:20:59.709Z,13.18
2024-04-16T02:23:49.612Z,12.82
2024-04-16T02:26:22.658Z,13.95
2024-04-16T02:29:09.561Z,12.82
2024-04-16T02:31:42.887Z,11.82
2024-04-16T02:34:29.587Z,13.73
2024-04-16T02:37:02.756Z,15.48
2024-04-16T02:39:49.595Z,11.98
2024-04-16T02:42:22.667Z,12.60
2024-04-16T02:45:09.568Z,13.25
2024-04-16T02:47:42.764Z,12.93
2024-04-16T02:50:29.596Z,14.00
2024-04-16T02:53:02.679Z,13.60
2024-04-16T02:55:49.566Z,10.98
2024-04-16T02:58:22.748Z,11.68
2024-04-16T03:01:13.753Z,13.18
2024-04-16T03:04:00.648Z,13.23
2024-04-16T03:06:54.570Z,14.32
2024-04-16T03:09:43.617Z,13.32
2024-04-16T03:12:16.671Z,10.85
2024-04-16T03:15:03.595Z,10.25
2024-04-16T03:17:36.828Z,14.30
2024-04-16T03:20:23.601Z,13.55
2024-04-16T03:22:59.736Z,13.15
2024-04-16T03:25:49.599Z,11.98
2024-04-16T03:28:22.833Z,11.15
2024-04-16T03:31:09.635Z,11.00
2024-04-16T03:33:43.706Z,10.13
2024-04-16T03:36:37.612Z,11.15
2024-04-16T03:39:24.598Z,11.07
2024-04-16T03:41:57.740Z,11.35
2024-04-16T03:44:44.611Z,12.27
2024-04-16T03:47:17.748Z,12.00
2024-04-16T03:50:04.632Z,8.85
2024-04-16T03:52:37.800Z,8.93
2024-04-16T03:55:24.674Z,10.30
2024-04-16T03:57:58.231Z,9.25
2024-04-16T04:01:04.857Z,10.60
2024-04-16T04:03:43.348Z,10.27
2024-04-16T04:06:30.601Z,11.60
2024-04-16T04:09:03.732Z,10.45
2024-04-16T04:11:50.602Z,11.20
2024-04-16T04:14:23.779Z,12.35
2024-04-16T04:17:10.654Z,12.40
2024-04-16T04:19:43.809Z,13.40
2024-04-16T04:22:30.656Z,13.40
2024-04-16T04:25:03.754Z,12.05
2024-04-16T04:27:50.637Z,12.32
2024-04-16T04:30:31.790Z,12.65
2024-04-16T04:33:11.671Z,13.35
2024-04-16T04:35:58.614Z,12.40
2024-04-16T04:38:52.604Z,12.82
2024-04-16T04:41:39.629Z,14.05
2024-04-16T04:44:12.803Z,13.23
2024-04-16T04:47:00.694Z,13.65
2024-04-16T04:49:33.841Z,14.57
2024-04-16T04:52:20.646Z,13.40
2024-04-16T04:54:53.757Z,13.48
2024-04-16T04:57:49.636Z,14.77
2024-04-16T05:00:44.642Z,13.57
2024-04-16T05:03:31.660Z,12.63
2024-04-16T05:06:07.419Z,12.43
2024-04-16T05:08:54.656Z,12.65
2024-04-16T05:11:27.925Z,10.70
2024-04-16T05:14:17.629Z,9.98
2024-04-16T05:17:04.642Z,10.68
2024-04-16T05:19:58.675Z,9.60
2024-04-16T05:22:46.943Z,10.45
2024-04-16T05:25:20.807Z,9.93
2024-04-16T05:28:07.709Z,9.50
2024-04-16T05:30:42.324Z,9.18
2024-04-16T05:33:29.704Z,9.70
2024-04-16T05:36:05.939Z,8.95
2024-04-16T05:38:53.707Z,9.80
2024-04-16T05:41:26.785Z,9.35
2024-04-16T05:44:13.721Z,8.85
2024-04-16T05:46:46.820Z,9.00
2024-04-16T05:49:33.719Z,8.68
2024-04-16T05:52:14.719Z,8.43
2024-04-16T05:55:08.699Z,9.65
2024-04-16T05:57:55.718Z,9.57
2024-04-16T06:00:28.787Z,9.50
2024-04-16T06:03:15.718Z,9.27
2024-04-16T06:05:59.041Z,9.55
2024-04-16T06:08:40.673Z,9.15
2024-04-16T06:11:23.726Z,9.75
2024-04-16T06:14:03.810Z,8.13
2024-04-16T06:16:43.799Z,8.15
2024-04-16T06:19:23.735Z,8.30
2024-04-16T06:22:03.866Z,8.57
2024-04-16T06:24:43.705Z,9.98
2024-04-16T06:27:23.770Z,10.98
2024-04-16T06:30:10.647Z,10.48
2024-04-16T06:32:46.579Z,10.38
2024-04-16T06:35:33.714Z,8.32
2024-04-16T06:38:06.864Z,9.43
2024-04-16T06:40:53.733Z,8.43
2024-04-16T06:43:33.723Z,10.57
2024-04-16T06:46:20.733Z,9.13
2024-04-16T06:49:05.143Z,9.75
2024-04-16T06:51:59.758Z,9.15
2024-04-16T06:54:39.705Z,10.85
2024-04-16T06:57:33.743Z,11.43
2024-04-16T07:00:20.738Z,9.45
2024-04-16T07:02:53.845Z,9.50
2024-04-16T07:05:40.727Z,9.43
2024-04-16T07:08:14.855Z,8.68
2024-04-16T07:11:01.751Z,9.23
2024-04-16T07:13:37.414Z,9.40
2024-04-16T07:16:24.770Z,8.55
2024-04-16T07:18:57.862Z,9.55
2024-04-16T07:21:44.691Z,8.60
2024-04-16T07:24:17.867Z,9.27
2024-04-16T07:27:04.702Z,9.75
2024-04-16T07:29:37.825Z,13.35
2024-04-16T07:32:40.085Z,14.05
2024-04-16T07:35:26.698Z,8.52
2024-04-16T07:37:59.841Z,8.65
2024-04-16T07:40:46.733Z,10.40
2024-04-16T07:43:20.190Z,10.75
2024-04-16T07:46:06.743Z,10.70
2024-04-16T07:48:42.075Z,8.98
2024-04-16T07:51:28.701Z,10.27
2024-04-16T07:54:01.902Z,9.30
2024-04-16T07:56:48.790Z,10.10
2024-04-16T07:59:21.834Z,9.48
2024-04-16T08:02:08.894Z,10.13
2024-04-16T08:04:42.963Z,8.43
2024-04-16T08:07:32.809Z,9.73
2024-04-16T08:10:05.894Z,9.70
2024-04-16T08:12:52.708Z,9.27
2024-04-16T08:15:32.769Z,10.20
2024-04-16T08:18:22.004Z,11.70
2024-04-16T08:21:02.805Z,10.00
2024-04-16T08:23:49.757Z,10.10
2024-04-16T08:26:25.556Z,11.13
2024-04-16T08:29:12.816Z,10.75
2024-04-16T08:31:45.961Z,11.30
2024-04-16T08:34:32.841Z,11.43
2024-04-16T08:37:12.812Z,10.40
2024-04-16T08:40:06.855Z,8.95
2024-04-16T08:42:53.984Z,8.82
2024-04-16T08:45:29.943Z,10.30
2024-04-16T08:48:17.836Z,8.55
2024-04-16T08:50:52.871Z,9.65
2024-04-16T08:53:40.782Z,10.45
2024-04-16T08:56:21.763Z,11.60
2024-04-16T08:59:09.771Z,9.55
2024-04-16T09:01:50.892Z,11.48
2024-04-16T09:04:44.968Z,10.90
2024-04-16T09:07:27.829Z,10.93
2024-04-16T09:10:28.914Z,11.55
2024-04-16T09:13:17.829Z,11.57
2024-04-16T09:15:51.881Z,11.88
2024-04-16T09:18:40.806Z,17.60
2024-04-16T09:21:13.900Z,16.50
2024-04-16T09:24:03.846Z,10.00
2024-04-16T09:26:48.847Z,9.43
2024-04-16T09:29:35.778Z,9.57
2024-04-16T09:32:17.872Z,8.95
2024-04-16T09:35:11.792Z,10.05
2024-04-16T09:38:12.800Z,7.93
2024-04-16T09:41:07.848Z,10.30
2024-04-16T09:43:55.770Z,9.77
2024-04-16T09:46:30.965Z,9.63
2024-04-16T09:49:21.817Z,10.63
2024-04-16T09:51:57.158Z,11.27
2024-04-16T09:54:47.794Z,10.95
2024-04-16T09:57:23.123Z,11.30
2024-04-16T10:00:10.227Z,12.45
2024-04-16T10:02:46.962Z,8.82
2024-04-16T10:05:36.319Z,11.40
2024-04-16T10:08:22.880Z,10.95
2024-04-16T10:11:01.278Z,10.95
2024-04-16T10:13:53.807Z,9.98
2024-04-16T10:16:27.847Z,9.88
2024-04-16T10:19:21.654Z,10.80
2024-04-16T10:22:02.144Z,10.57
2024-04-16T10:24:48.803Z,8.95
2024-04-16T10:27:25.855Z,9.65
2024-04-16T10:30:23.809Z,9.43
2024-04-16T10:32:58.541Z,8.75
2024-04-16T10:35:50.380Z,8.65
2024-04-16T10:38:27.450Z,10.75
2024-04-16T10:41:17.788Z,8.63
2024-04-16T10:43:51.415Z,10.18
2024-04-16T10:46:38.977Z,10.35
2024-04-16T10:49:13.261Z,10.70
2024-04-16T10:51:59.853Z,8.90
2024-04-16T10:54:45.943Z,10.00
2024-04-16T10:57:33.800Z,9.82
2024-04-16T11:00:14.900Z,14.00
2024-04-16T11:02:55.164Z,14.40
2024-04-16T11:05:34.855Z,14.63
2024-04-16T11:08:15.893Z,8.95
2024-04-16T11:10:57.994Z,10.40
2024-04-16T11:13:41.007Z,9.18
2024-04-16T11:16:20.887Z,10.20
2024-04-16T11:19:01.022Z,9.93
2024-04-16T11:21:41.864Z,10.02
2024-04-16T11:24:21.992Z,10.77
2024-04-16T11:27:01.849Z,10.38
2024-04-16T11:29:41.899Z,9.07
2024-04-16T11:32:21.969Z,9.07
2024-04-16T11:35:02.014Z,9.00
2024-04-16T11:37:50.930Z,9.63
2024-04-16T11:40:37.945Z,9.55
2024-04-16T11:43:11.221Z,8.23
2024-04-16T11:45:57.867Z,8.57
2024-04-16T11:48:32.342Z,11.90
2024-04-16T11:51:21.866Z,8.52
2024-04-16T11:53:55.215Z,8.55
2024-04-16T11:56:41.859Z,10.75
2024-04-16T11:59:21.859Z,9.00
2024-04-16T12:02:12.791Z,9.07
2024-04-16T12:04:46.580Z,10.15
2024-04-16T12:07:33.899Z,8.70
2024-04-16T12:10:27.872Z,9.90
2024-04-16T12:13:14.924Z,11.68
2024-04-16T12:15:54.952Z,10.32
2024-04-16T12:18:41.856Z,9.52
2024-04-16T12:21:14.982Z,10.82
2024-04-16T12:24:01.858Z,11.30
2024-04-16T12:26:34.967Z,11.40
2024-04-16T12:29:21.905Z,12.18
2024-04-16T12:32:05.024Z,11.70
2024-04-16T12:34:48.294Z,9.70
2024-04-16T12:37:34.939Z,10.63
2024-04-16T12:40:28.898Z,10.88
2024-04-16T12:43:15.927Z,9.13
2024-04-16T12:45:49.019Z,10.40
2024-04-16T12:48:35.979Z,9.65
2024-04-16T12:51:09.985Z,10.05
2024-04-16T12:53:56.879Z,10.40
2024-04-16T12:56:29.962Z,10.00
2024-04-16T12:59:16.935Z,9.75
2024-04-16T13:01:51.066Z,10.00
2024-04-16T13:04:37.912Z,7.00
2024-04-16T13:07:11.074Z,8.90
2024-04-16T13:09:57.913Z,6.93
2024-04-16T13:12:34.150Z,6.68
2024-04-16T13:15:20.947Z,7.32
2024-04-16T13:18:01.137Z,7.55
2024-04-16T13:20:55.980Z,8.45
2024-04-16T13:23:42.974Z,10.02
2024-04-16T13:26:15.985Z,7.90
2024-04-16T13:29:02.923Z,9.25
2024-04-16T13:31:36.137Z,10.75
2024-04-16T13:34:23.944Z,11.02
2024-04-16T13:37:04.045Z,10.95
2024-04-16T13:39:43.885Z,9.82
2024-04-16T13:42:23.999Z,8.63
2024-04-16T13:45:03.942Z,10.10
2024-04-16T13:47:44.165Z,12.02
2024-04-16T13:50:23.919Z,9.57
2024-04-16T13:53:10.945Z,9.98
2024-04-16T13:55:51.974Z,11.23
2024-04-16T13:58:32.080Z,13.07
2024-04-16T14:01:12.017Z,11.18
2024-04-16T14:03:59.906Z,9.50
2024-04-16T14:06:34.009Z,9.13
2024-04-16T14:09:24.429Z,10.85
2024-04-16T14:11:58.271Z,9.57
2024-04-16T14:14:44.992Z,9.55
2024-04-16T14:17:19.710Z,10.70
2024-04-16T14:20:08.843Z,10.02
2024-04-16T14:22:42.422Z,10.20
2024-04-16T14:25:33.945Z,11.73
2024-04-16T14:28:08.263Z,9.77
2024-04-16T14:30:55.914Z,9.95
2024-04-16T14:33:29.355Z,11.48
2024-04-16T14:36:15.944Z,11.02
2024-04-16T14:39:12.655Z,10.30
2024-04-16T14:42:08.945Z,9.15
2024-04-16T14:44:55.918Z,6.28
2024-04-16T14:47:29.099Z,10.10
2024-04-16T14:50:24.839Z,10.98
2024-04-16T14:52:58.158Z,9.13
2024-04-16T14:55:45.012Z,8.95
2024-04-16T14:58:18.083Z,10.38
2024-04-16T15:01:04.981Z,9.18
2024-04-16T15:03:39.101Z,9.88
2024-04-16T15:06:26.980Z,10.75
2024-04-16T15:09:03.281Z,10.70
2024-04-16T15:11:49.951Z,11.13
2024-04-16T15:14:23.091Z,11.75
2024-04-16T15:17:10.024Z,9.68
2024-04-16T15:19:56.023Z,13.07
2024-04-16T15:22:35.935Z,10.10
2024-04-16T15:25:16.053Z,10.15
2024-04-16T15:27:55.951Z,10.70
2024-04-16T15:30:37.542Z,10.95
2024-04-16T15:33:18.039Z,9.38
2024-04-16T15:36:06.946Z,10.07
2024-04-16T15:38:53.952Z,10.10
2024-04-16T15:41:40.949Z,10.55
2024-04-16T15:44:14.096Z,9.30
2024-04-16T15:47:01.952Z,9.57
2024-04-16T15:49:35.083Z,10.45
2024-04-16T15:52:21.981Z,8.82
2024-04-16T15:54:56.042Z,9.88
2024-04-16T15:57:43.979Z,11.07
2024-04-16T16:00:18.047Z,10.45
2024-04-16T16:03:05.022Z,9.43
2024-04-16T16:05:39.075Z,10.15
2024-04-16T16:08:25.974Z,10.80
2024-04-16T16:10:59.212Z,9.90
2024-04-16T16:13:45.973Z,9.40
2024-04-16T16:16:19.081Z,10.57
2024-04-16T16:19:05.971Z,11.32
2024-04-16T16:21:39.138Z,11.25
2024-04-16T16:24:25.967Z,10.68
2024-04-16T16:26:59.089Z,9.82
2024-04-16T16:29:47.012Z,9.73
2024-04-16T16:32:20.135Z,11.50
2024-04-16T16:35:11.965Z,10.48
2024-04-16T16:37:52.063Z,10.73
2024-04-16T16:40:46.028Z,12.75
2024-04-16T16:43:33.107Z,11.30
2024-04-16T16:46:10.069Z,13.05
2024-04-16T16:48:56.991Z,12.23
2024-04-16T16:51:37.016Z,11.73
2024-04-16T16:54:23.993Z,11.38
2024-04-16T16:56:57.079Z,10.30
2024-04-16T16:59:43.973Z,10.90
2024-04-16T17:02:18.026Z,11.88
2024-04-16T17:05:04.974Z,14.32
2024-04-16T17:07:38.121Z,15.50
2024-04-16T17:10:25.066Z,23.05
2024-04-16T17:13:05.090Z,15.93
2024-04-16T17:15:45.045Z,16.90
2024-04-16T17:18:25.319Z,18.08
2024-04-16T17:21:06.976Z,19.67
2024-04-16T17:23:47.248Z,17.15
2024-04-16T17:26:32.989Z,11.70
2024-04-16T17:29:13.127Z,12.52
2024-04-16T17:31:53.053Z,12.30
2024-04-16T17:34:33.056Z,11.63
2024-04-16T17:37:06.096Z,11.10
2024-04-16T17:39:59.998Z,13.88
2024-04-16T17:42:47.008Z,11.23
2024-04-16T17:45:20.113Z,10.38
2024-04-16T17:48:00.099Z,12.20
2024-04-16T17:50:39.997Z,10.73
2024-04-16T17:53:13.180Z,12.90
2024-04-16T17:56:01.024Z,11.23
2024-04-16T17:58:41.216Z,10.90
2024-04-16T18:01:22.152Z,11.00
2024-04-16T18:04:03.048Z,12.50
2024-04-16T18:06:46.016Z,13.00
2024-04-16T18:09:26.996Z,14.13
2024-04-16T18:12:07.041Z,13.18
2024-04-16T18:14:47.148Z,14.40
2024-04-16T18:17:27.099Z,11.00
2024-04-16T18:20:07.598Z,10.82
2024-04-16T18:22:47.089Z,11.15
2024-04-16T18:25:20.420Z,11.88
2024-04-16T18:28:07.048Z,10.95
2024-04-16T18:30:48.048Z,9.63
2024-04-16T18:33:28.231Z,10.15
2024-04-16T18:36:09.003Z,9.70
2024-04-16T18:38:56.025Z,11.77
2024-04-16T18:41:50.060Z,11.88
2024-04-16T18:44:44.019Z,10.95
2024-04-16T18:47:31.035Z,10.68
2024-04-16T18:50:04.159Z,11.68
2024-04-16T18:52:51.093Z,12.63
2024-04-16T18:55:24.166Z,9.82
2024-04-16T18:58:12.018Z,9.80
2024-04-16T19:00:45.184Z,9.65
2024-04-16T19:03:33.055Z,10.00
2024-04-16T19:06:06.209Z,11.23
2024-04-16T19:08:53.035Z,10.63
2024-04-16T19:11:26.135Z,10.07
2024-04-16T19:14:14.035Z,11.27
2024-04-16T19:16:50.052Z,11.95
2024-04-16T19:19:37.064Z,11.70
2024-04-16T19:22:11.146Z,11.77
2024-04-16T19:24:58.053Z,12.45
2024-04-16T19:27:45.072Z,12.65
2024-04-16T19:30:18.461Z,12.02
2024-04-16T19:33:05.090Z,13.95
2024-04-16T19:35:39.678Z,15.20
2024-04-16T19:38:27.102Z,13.70
2024-04-16T19:41:23.082Z,13.32
2024-04-16T19:44:10.037Z,12.52
2024-04-16T19:46:43.173Z,13.55
2024-04-16T19:49:30.100Z,12.63
2024-04-16T19:52:03.187Z,12.30
2024-04-16T19:54:50.057Z,15.35
2024-04-16T19:57:23.179Z,13.30
2024-04-16T20:00:13.062Z,12.68
2024-04-16T20:02:46.157Z,12.70
2024-04-16T20:05:33.095Z,13.52
2024-04-16T20:08:13.070Z,12.82
2024-04-16T20:11:00.107Z,13.18
2024-04-16T20:13:41.195Z,12.10
2024-04-16T20:16:21.118Z,12.23
2024-04-16T20:19:05.238Z,12.43
2024-04-16T20:21:46.058Z,10.52
2024-04-16T20:24:41.089Z,12.35
2024-04-16T20:27:35.103Z,12.13
2024-04-16T20:30:22.065Z,11.82
2024-04-16T20:33:02.182Z,11.65
2024-04-16T20:35:49.057Z,13.77
2024-04-16T20:38:22.201Z,15.15
2024-04-16T20:41:09.198Z,15.75
2024-04-16T20:43:42.271Z,14.50
2024-04-16T20:46:29.108Z,14.32
2024-04-16T20:49:02.214Z,13.75
2024-04-16T20:51:50.088Z,14.52
2024-04-16T20:54:23.351Z,11.10
2024-04-16T20:57:10.085Z,11.82
2024-04-16T20:59:50.192Z,11.18
2024-04-16T21:02:34.114Z,12.00
2024-04-16T21:05:14.280Z,12.73
2024-04-16T21:07:54.115Z,12.27
2024-04-16T21:10:34.237Z,14.27
2024-04-16T21:13:21.128Z,12.05
2024-04-16T21:16:02.461Z,9.98
2024-04-16T21:18:49.088Z,12.02
2024-04-16T21:21:29.095Z,11.38
2024-04-16T21:24:09.580Z,12.50
2024-04-16T21:26:56.091Z,11.73
2024-04-16T21:29:29.443Z,11.70
2024-04-16T21:32:16.140Z,12.75
2024-04-16T21:34:49.710Z,12.65
2024-04-16T21:37:37.134Z,12.73
2024-04-16T21:40:10.497Z,13.35
2024-04-16T21:42:57.100Z,13.50
2024-04-16T21:45:30.647Z,13.02
2024-04-16T21:48:17.102Z,11.50
2024-04-16T21:50:55.879Z,12.70
2024-04-16T21:53:43.090Z,13.65
2024-04-16T21:56:16.524Z,11.98
2024-04-16T21:59:10.098Z,13.27
2024-04-16T22:02:04.287Z,12.23
2024-04-16T22:04:44.116Z,12.80
2024-04-16T22:07:24.107Z,12.32
2024-04-16T22:09:57.209Z,12.57
2024-04-16T22:12:44.098Z,12.13
2024-04-16T22:15:17.258Z,12.90
2024-04-16T22:18:04.289Z,12.32
2024-04-16T22:20:38.222Z,11.80
2024-04-16T22:23:25.108Z,11.57
2024-04-16T22:26:25.199Z,13.80
2024-04-16T22:29:12.119Z,13.30
2024-04-16T22:31:45.213Z,13.98
2024-04-16T22:34:32.184Z,13.70
2024-04-16T22:37:05.278Z,13.52
2024-04-16T22:39:52.100Z,14.20
2024-04-16T22:42:25.243Z,16.45
2024-04-16T22:45:12.104Z,16.08
2024-04-16T22:47:45.301Z,15.77
2024-04-16T22:50:35.425Z,16.60
2024-04-16T22:53:10.353Z,15.02
2024-04-16T22:55:58.182Z,14.68
2024-04-16T22:58:38.278Z,14.85
2024-04-16T23:01:18.182Z,16.40
2024-04-16T23:04:05.215Z,19.33
2024-04-16T23:06:59.159Z,19.38
2024-04-16T23:09:46.142Z,24.85
2024-04-16T23:12:19.249Z,21.08
2024-04-16T23:15:06.149Z,16.65
2024-04-16T23:17:42.333Z,17.52
2024-04-16T23:20:29.148Z,16.30
2024-04-16T23:23:03.421Z,14.85
2024-04-16T23:25:50.146Z,16.58
2024-04-16T23:28:30.282Z,13.45
2024-04-16T23:31:10.131Z,11.55
2024-04-16T23:33:50.256Z,12.18
2024-04-16T23:36:30.138Z,12.85
2024-04-16T23:39:24.153Z,11.95
2024-04-16T23:42:11.148Z,12.32
2024-04-16T23:44:44.237Z,12.25
2024-04-16T23:47:31.275Z,12.02
2024-04-16T23:50:05.265Z,12.77
2024-04-16T23:52:53.162Z,13.30
2024-04-16T23:55:33.176Z,12.07
2024-04-16T23:58:27.159Z,14.07
